Time;durP1;ratioP1;P1;durP2;ratioP2;P2;SDS_P1;SDS_P2;PMS_P1;PMS_P2;Temp;Humidity;BMP_temperature;BMP_pressure;BME280_temperature;BME280_humidity;BME280_pressure;Samples;Min_cycle;Max_cycle;Signal;HPM_P1;HPM_P2
2024/01/08 00:00:14;;;;;;;5.83;5.23;;;3.00;99.90;;;;;;4886844;29;20660;-70
2024/01/08 00:02:39;;;;;;;6.30;5.75;;;3.10;99.90;;;;;;4887015;29;20179;-70
2024/01/08 00:05:05;;;;;;;6.90;5.70;;;2.90;99.90;;;;;;4883148;29;20186;-63
2024/01/08 00:07:31;;;;;;;6.00;5.50;;;2.90;99.90;;;;;;4895910;29;20179;-72
2024/01/08 00:09:57;;;;;;;6.70;5.83;;;3.00;99.90;;;;;;4895823;29;20406;-72
2024/01/08 00:12:23;;;;;;;7.10;6.10;;;3.00;99.90;;;;;;4887192;29;20216;-71
2024/01/08 00:14:49;;;;;;;7.30;6.33;;;3.00;99.90;;;;;;4866743;29;20183;-72
2024/01/08 00:17:15;;;;;;;6.90;5.90;;;3.10;99.90;;;;;;4884601;29;20207;-71
2024/01/08 00:19:40;;;;;;;8.63;6.17;;;3.10;99.90;;;;;;4863264;29;20263;-71
2024/01/08 00:22:06;;;;;;;6.10;5.60;;;3.00;99.90;;;;;;4879519;29;20267;-64
2024/01/08 00:24:32;;;;;;;5.87;5.27;;;2.80;99.90;;;;;;4885377;29;20182;-70
2024/01/08 00:26:57;;;;;;;5.73;5.10;;;2.80;99.90;;;;;;4879401;29;20199;-70
2024/01/08 00:29:23;;;;;;;6.33;5.77;;;2.80;99.90;;;;;;4895852;29;20230;-70
2024/01/08 00:31:49;;;;;;;5.27;4.77;;;2.70;99.90;;;;;;4894061;29;20655;-71
2024/01/08 00:34:15;;;;;;;6.10;5.50;;;2.70;99.90;;;;;;4885232;29;20183;-70
2024/01/08 00:36:41;;;;;;;7.90;6.50;;;2.70;99.90;;;;;;4878486;29;20653;-71
2024/01/08 00:39:09;;;;;;;6.82;5.43;;;2.80;99.90;;;;;;4880995;29;20205;-63
2024/01/08 00:41:35;;;;;;;6.60;5.80;;;2.70;99.90;;;;;;4878044;29;20182;-71
2024/01/08 00:44:01;;;;;;;7.35;6.13;;;3.00;99.90;;;;;;4892526;29;20192;-71
2024/01/08 00:46:26;;;;;;;6.60;5.97;;;2.90;99.90;;;;;;4871517;29;20206;-71
2024/01/08 00:48:52;;;;;;;8.13;6.93;;;2.90;99.90;;;;;;4879305;29;20179;-71
2024/01/08 00:51:18;;;;;;;7.20;6.03;;;3.00;99.90;;;;;;4876159;29;20539;-71
2024/01/08 00:53:44;;;;;;;8.37;6.80;;;3.00;99.90;;;;;;4887126;29;20423;-71
2024/01/08 00:56:10;;;;;;;8.00;5.63;;;3.00;99.90;;;;;;4884931;29;20689;-64
2024/01/08 00:58:36;;;;;;;7.40;6.60;;;3.00;99.90;;;;;;4883585;29;20235;-71
2024/01/08 01:01:03;;;;;;;8.57;6.20;;;3.00;99.90;;;;;;4896324;29;20184;-71
2024/01/08 01:03:29;;;;;;;10.68;6.13;;;3.00;99.90;;;;;;4895819;29;20218;-68
2024/01/08 01:05:55;;;;;;;7.70;6.50;;;3.00;99.90;;;;;;4894409;29;20183;-69
2024/01/08 01:08:21;;;;;;;7.07;6.32;;;3.00;99.50;;;;;;4896091;29;20183;-68
2024/01/08 01:10:47;;;;;;;8.87;6.10;;;3.10;99.90;;;;;;4896610;29;20335;-69
2024/01/08 01:13:13;;;;;;;5.10;4.70;;;2.90;99.90;;;;;;4889952;29;20260;-62
2024/01/08 01:15:39;;;;;;;6.78;5.97;;;2.90;99.90;;;;;;4887334;29;20536;-69
2024/01/08 01:18:05;;;;;;;7.13;6.43;;;3.00;99.90;;;;;;4880222;29;20222;-66
2024/01/08 01:20:31;;;;;;;8.70;7.50;;;3.00;99.90;;;;;;4878722;29;20834;-70
2024/01/08 01:22:56;;;;;;;8.70;7.27;;;3.10;99.90;;;;;;4878008;29;20204;-71
2024/01/08 01:25:22;;;;;;;8.80;7.23;;;3.20;99.90;;;;;;4889256;29;20269;-70
2024/01/08 01:27:48;;;;;;;9.07;7.47;;;3.30;99.10;;;;;;4878046;29;20237;-70
2024/01/08 01:30:14;;;;;;;8.47;7.13;;;3.40;99.50;;;;;;4881637;29;20180;-62
2024/01/08 01:32:39;;;;;;;8.10;7.27;;;3.30;99.00;;;;;;4895328;29;20179;-71
2024/01/08 01:35:06;;;;;;;8.90;7.97;;;3.20;99.80;;;;;;4867598;29;20410;-71
2024/01/08 01:37:31;;;;;;;6.75;6.15;;;3.00;99.90;;;;;;4899365;29;20274;-71
2024/01/08 01:39:57;;;;;;;8.90;7.60;;;2.90;99.90;;;;;;4881605;29;20581;-70
2024/01/08 01:42:23;;;;;;;7.90;6.83;;;3.00;99.90;;;;;;4884874;29;20636;-70
2024/01/08 01:44:49;;;;;;;7.20;6.50;;;3.00;99.90;;;;;;4898834;29;20227;-71
2024/01/08 01:47:15;;;;;;;7.17;6.43;;;2.70;99.90;;;;;;4898205;29;20417;-63
2024/01/08 01:49:42;;;;;;;10.77;7.75;;;2.70;99.90;;;;;;4899992;29;20202;-71
2024/01/08 01:52:08;;;;;;;7.82;7.13;;;2.90;99.90;;;;;;4899359;29;20196;-71
2024/01/08 01:54:35;;;;;;;8.02;7.13;;;2.90;99.90;;;;;;4889507;29;20206;-70
2024/01/08 01:57:02;;;;;;;8.40;6.88;;;2.80;99.90;;;;;;4864228;29;20264;-70
2024/01/08 01:59:28;;;;;;;8.32;7.45;;;2.80;99.90;;;;;;4880318;29;20198;-70
2024/01/08 02:01:56;;;;;;;9.32;7.75;;;2.60;99.90;;;;;;4899259;29;20187;-70
2024/01/08 02:04:24;;;;;;;7.45;6.70;;;2.60;99.90;;;;;;4898661;29;20237;-70
2024/01/08 02:06:51;;;;;;;9.00;7.45;;;2.50;99.90;;;;;;4899760;29;20253;-70
2024/01/08 02:09:18;;;;;;;9.43;7.35;;;2.60;99.90;;;;;;4881282;29;20652;-70
2024/01/08 02:11:43;;;;;;;7.97;7.20;;;2.60;99.90;;;;;;4888936;29;20324;-69
2024/01/08 02:14:10;;;;;;;7.20;6.50;;;2.50;99.90;;;;;;4884360;29;20223;-69
2024/01/08 02:16:36;;;;;;;7.70;6.95;;;2.60;99.90;;;;;;4879891;29;20459;-68
2024/01/08 02:19:02;;;;;;;7.97;7.17;;;2.50;99.90;;;;;;4883364;29;20210;-69
2024/01/08 02:21:28;;;;;;;7.60;6.78;;;2.50;99.90;;;;;;4898353;29;20183;-69
2024/01/08 02:23:54;;;;;;;7.77;7.00;;;2.50;99.90;;;;;;4899333;29;20192;-69
2024/01/08 02:26:21;;;;;;;7.30;6.60;;;2.50;99.90;;;;;;4882306;29;20196;-69
2024/01/08 02:28:47;;;;;;;7.25;6.55;;;2.50;99.90;;;;;;4863698;29;20402;-70
2024/01/08 02:31:12;;;;;;;10.90;6.90;;;2.60;99.90;;;;;;4880528;29;20185;-70
2024/01/08 02:33:38;;;;;;;6.80;6.10;;;2.30;99.90;;;;;;4886991;29;20282;-70
2024/01/08 02:36:04;;;;;;;8.27;7.47;;;2.40;99.90;;;;;;4881145;29;20198;-70
2024/01/08 02:38:30;;;;;;;7.83;7.03;;;2.50;99.90;;;;;;4879538;29;20214;-70
2024/01/08 02:40:57;;;;;;;7.97;6.87;;;2.70;99.90;;;;;;4864008;29;20447;-70
2024/01/08 02:43:24;;;;;;;8.93;7.10;;;2.50;99.90;;;;;;4893283;29;20688;-69
2024/01/08 02:45:50;;;;;;;7.38;6.63;;;2.30;99.90;;;;;;4898354;29;20179;-70
2024/01/08 02:48:15;;;;;;;7.27;6.57;;;2.20;99.90;;;;;;4898662;29;20539;-63
2024/01/08 02:50:41;;;;;;;8.67;7.67;;;2.40;99.90;;;;;;4898753;29;20644;-70
2024/01/08 02:53:07;;;;;;;8.10;7.03;;;2.50;99.90;;;;;;4897713;29;20186;-70
2024/01/08 02:55:33;;;;;;;9.53;7.30;;;2.60;99.90;;;;;;4884459;29;20535;-69
2024/01/08 02:58:03;;;;;;;8.67;6.97;;;2.50;99.90;;;;;;4880145;29;20634;-70
2024/01/08 03:00:29;;;;;;;13.13;7.93;;;2.60;99.90;;;;;;4885249;29;20647;-69
2024/01/08 03:02:55;;;;;;;10.17;7.80;;;2.80;99.90;;;;;;4866684;29;20179;-70
2024/01/08 03:05:20;;;;;;;10.73;7.97;;;2.70;99.90;;;;;;4898043;29;20182;-69
2024/01/08 03:07:46;;;;;;;7.80;7.00;;;2.80;99.90;;;;;;4898689;29;20191;-70
2024/01/08 03:10:12;;;;;;;9.47;7.47;;;2.80;99.90;;;;;;4897099;29;20535;-70
2024/01/08 03:12:37;;;;;;;8.23;7.40;;;2.80;99.90;;;;;;4896887;29;20974;-70
2024/01/08 03:15:04;;;;;;;8.60;7.80;;;3.00;99.90;;;;;;4882216;29;20658;-71
2024/01/08 03:17:29;;;;;;;8.95;7.95;;;2.80;99.90;;;;;;4878844;29;20265;-70
2024/01/08 03:19:56;;;;;;;10.33;7.87;;;2.80;99.90;;;;;;4888551;29;20180;-71
2024/01/08 03:22:21;;;;;;;9.48;7.70;;;2.90;99.90;;;;;;4895262;29;20662;-70
2024/01/08 03:24:48;;;;;;;9.20;7.70;;;2.70;99.90;;;;;;4898542;29;20178;-70
2024/01/08 03:27:13;;;;;;;8.68;7.75;;;2.60;99.90;;;;;;4898160;29;20175;-70
2024/01/08 03:29:40;;;;;;;10.07;7.97;;;2.60;99.90;;;;;;4880851;29;20835;-71
2024/01/08 03:32:06;;;;;;;8.85;7.95;;;2.40;99.90;;;;;;4880603;29;20189;-71
2024/01/08 03:34:32;;;;;;;11.30;7.38;;;2.40;99.90;;;;;;4865725;29;20545;-70
2024/01/08 03:36:58;;;;;;;9.75;7.75;;;2.40;99.90;;;;;;4882671;29;20211;-70
2024/01/08 03:39:25;;;;;;;9.30;7.97;;;2.00;99.90;;;;;;4861818;29;20270;-70
2024/01/08 03:41:50;;;;;;;10.90;7.70;;;2.00;99.90;;;;;;4879362;29;20180;-71
2024/01/08 03:44:16;;;;;;;9.63;8.00;;;2.20;99.90;;;;;;4879191;29;20243;-71
2024/01/08 03:46:42;;;;;;;10.33;8.00;;;2.30;99.90;;;;;;4878541;29;20279;-71
2024/01/08 03:49:08;;;;;;;9.70;7.53;;;2.40;99.90;;;;;;4880389;29;20187;-72
2024/01/08 03:51:34;;;;;;;10.47;8.43;;;2.50;99.90;;;;;;4893733;29;20191;-72
2024/01/08 03:54:00;;;;;;;10.88;8.52;;;2.50;99.90;;;;;;4898037;29;20186;-71
2024/01/08 03:56:26;;;;;;;8.27;7.47;;;2.40;99.90;;;;;;4879194;29;20748;-71
2024/01/08 03:58:52;;;;;;;10.73;7.40;;;2.30;99.90;;;;;;4897697;29;20477;-71
2024/01/08 04:01:17;;;;;;;9.07;7.50;;;2.20;99.90;;;;;;4896281;29;20210;-72
2024/01/08 04:03:43;;;;;;;8.80;7.90;;;2.20;99.90;;;;;;4896164;29;20202;-71
2024/01/08 04:06:09;;;;;;;10.23;8.77;;;2.00;99.90;;;;;;4897243;29;20189;-71
2024/01/08 04:08:35;;;;;;;9.80;8.10;;;2.20;99.90;;;;;;4895295;29;20441;-71
2024/01/08 04:11:00;;;;;;;9.83;8.80;;;2.40;99.90;;;;;;4897469;29;20535;-72
2024/01/08 04:13:26;;;;;;;9.97;8.50;;;2.40;99.90;;;;;;4896667;29;20238;-71
2024/01/08 04:15:52;;;;;;;9.67;8.67;;;2.30;99.90;;;;;;4897428;29;20445;-72
2024/01/08 04:18:18;;;;;;;10.73;8.63;;;2.40;99.90;;;;;;4897258;29;20498;-72
2024/01/08 04:20:44;;;;;;;8.73;7.47;;;2.60;99.90;;;;;;4896567;29;20182;-71
2024/01/08 04:23:09;;;;;;;11.20;9.30;;;2.40;99.90;;;;;;4887437;29;20191;-71
2024/01/08 04:25:35;;;;;;;9.30;8.40;;;2.50;99.90;;;;;;4877484;29;20428;-71
2024/01/08 04:28:01;;;;;;;11.97;9.33;;;2.60;99.90;;;;;;4864508;29;20504;-70
2024/01/08 04:30:27;;;;;;;10.70;9.40;;;2.70;99.90;;;;;;4896438;29;20178;-69
2024/01/08 04:32:53;;;;;;;10.37;8.90;;;2.70;99.90;;;;;;4896358;29;20181;-70
2024/01/08 04:35:19;;;;;;;10.20;7.95;;;2.50;99.90;;;;;;4896436;29;20190;-70
2024/01/08 04:37:44;;;;;;;8.80;7.90;;;2.50;99.90;;;;;;4896301;29;20528;-70
2024/01/08 04:40:11;;;;;;;8.70;7.70;;;2.50;99.90;;;;;;4892247;29;20662;-70
2024/01/08 04:42:37;;;;;;;9.50;8.50;;;2.60;99.90;;;;;;4877957;29;20189;-70
2024/01/08 04:45:03;;;;;;;9.30;7.73;;;2.80;99.90;;;;;;4878607;29;20183;-70
2024/01/08 04:47:28;;;;;;;12.75;7.07;;;2.50;99.90;;;;;;4877420;29;20431;-69
2024/01/08 04:49:54;;;;;;;8.03;7.23;;;2.60;99.90;;;;;;4861755;29;20191;-71
2024/01/08 04:52:20;;;;;;;9.80;8.27;;;2.30;99.90;;;;;;4878441;29;20179;-71
2024/01/08 04:54:46;;;;;;;10.03;8.33;;;2.40;99.90;;;;;;4887585;29;20199;-70
2024/01/08 04:57:12;;;;;;;10.35;8.02;;;2.40;99.90;;;;;;4892266;29;20481;-71
2024/01/08 04:59:44;;;;;;;9.17;7.90;;;2.50;99.90;;;;;;4896489;29;20191;-71
2024/01/08 05:02:10;;;;;;;9.82;7.30;;;2.60;99.90;;;;;;4895821;29;20182;-71
2024/01/08 05:04:36;;;;;;;11.25;8.00;;;2.60;99.90;;;;;;4895535;29;20631;-69
2024/01/08 05:07:02;;;;;;;8.27;7.00;;;2.60;99.90;;;;;;4897016;29;20186;-69
2024/01/08 05:09:29;;;;;;;9.50;8.38;;;2.60;99.90;;;;;;4899295;29;20263;-69
2024/01/08 05:11:55;;;;;;;10.45;7.70;;;2.60;99.90;;;;;;4900963;29;20281;-70
2024/01/08 05:14:21;;;;;;;10.55;8.25;;;2.70;99.90;;;;;;4900612;29;20569;-70
2024/01/08 05:16:46;;;;;;;14.23;8.03;;;2.50;99.90;;;;;;4894015;29;20187;-70
2024/01/08 05:19:12;;;;;;;8.87;7.97;;;2.70;99.90;;;;;;4881575;29;20542;-69
2024/01/08 05:21:38;;;;;;;11.87;10.13;;;2.60;99.90;;;;;;4881029;29;20180;-71
2024/01/08 05:24:05;;;;;;;10.80;8.17;;;2.40;99.90;;;;;;4898272;29;20469;-69
2024/01/08 05:26:30;;;;;;;9.15;8.05;;;2.50;99.90;;;;;;4899627;29;20182;-68
2024/01/08 05:28:56;;;;;;;8.93;7.43;;;2.40;99.90;;;;;;4900702;29;20192;-69
2024/01/08 05:31:22;;;;;;;8.43;7.30;;;2.30;99.90;;;;;;4886038;29;20183;-68
2024/01/08 05:33:49;;;;;;;10.73;8.35;;;2.60;99.90;;;;;;4880835;29;20266;-69
2024/01/08 05:36:15;;;;;;;10.07;9.05;;;2.60;99.90;;;;;;4864955;29;20175;-69
2024/01/08 05:38:41;;;;;;;12.30;10.00;;;2.70;99.90;;;;;;4880347;29;20562;-69
2024/01/08 05:41:07;;;;;;;8.98;8.07;;;2.90;99.90;;;;;;4885290;29;20191;-69
2024/01/08 05:43:39;;;;;;;9.30;8.30;;;2.90;99.90;;;;;;4890489;29;20191;-69
2024/01/08 05:46:08;;;;;;;11.18;9.43;;;2.80;99.90;;;;;;4900083;29;20438;-69
2024/01/08 05:48:37;;;;;;;12.90;9.80;;;2.60;99.90;;;;;;4899548;29;20244;-69
2024/01/08 05:51:11;;;;;;;10.85;8.55;;;2.70;99.90;;;;;;4899357;29;20207;-70
2024/01/08 05:53:37;;;;;;;9.80;8.57;;;2.50;99.90;;;;;;4882215;29;20214;-70
2024/01/08 05:56:03;;;;;;;11.07;8.20;;;2.70;99.90;;;;;;4895975;29;20257;-69
2024/01/08 05:58:32;;;;;;;12.50;7.93;;;2.60;99.90;;;;;;4880385;29;20215;-70
2024/01/08 06:00:59;;;;;;;10.57;9.50;;;2.80;99.90;;;;;;4881046;29;20368;-70
2024/01/08 06:03:24;;;;;;;11.10;8.20;;;2.60;99.90;;;;;;4881444;29;20191;-72
2024/01/08 06:05:50;;;;;;;9.17;7.40;;;2.70;99.90;;;;;;4880240;29;20190;-71
2024/01/08 06:08:16;;;;;;;8.47;7.23;;;2.70;99.90;;;;;;4880932;29;20515;-72
2024/01/08 06:10:43;;;;;;;11.37;8.17;;;2.50;99.90;;;;;;4880175;29;20391;-71
2024/01/08 06:13:10;;;;;;;9.70;8.80;;;2.70;99.90;;;;;;4880942;29;20415;-72
2024/01/08 06:15:37;;;;;;;11.45;8.90;;;2.50;99.90;;;;;;4880136;29;20194;-70
2024/01/08 06:18:04;;;;;;;8.02;7.22;;;2.50;99.90;;;;;;4865198;29;20668;-71
2024/01/08 06:20:31;;;;;;;8.80;7.40;;;2.50;99.90;;;;;;4883444;29;20221;-62
2024/01/08 06:22:56;;;;;;;9.27;8.38;;;2.40;99.90;;;;;;4890022;29;20188;-73
2024/01/08 06:25:22;;;;;;;9.37;7.80;;;2.40;99.90;;;;;;4880373;29;20182;-71
2024/01/08 06:27:48;;;;;;;11.23;8.00;;;2.40;99.90;;;;;;4882015;29;20282;-67
2024/01/08 06:30:14;;;;;;;11.97;9.10;;;2.30;99.90;;;;;;4881095;29;20211;-67
2024/01/08 06:32:40;;;;;;;10.65;8.20;;;2.30;99.90;;;;;;4880523;29;20183;-68
2024/01/08 06:35:06;;;;;;;7.43;6.63;;;2.40;99.90;;;;;;4889238;29;20218;-67
2024/01/08 06:37:31;;;;;;;8.85;7.40;;;2.50;99.90;;;;;;4898519;29;20218;-62
2024/01/08 06:39:57;;;;;;;7.73;6.90;;;2.60;99.90;;;;;;4899116;29;20635;-67
2024/01/08 06:42:23;;;;;;;9.30;8.40;;;2.60;99.90;;;;;;4898734;29;20194;-68
2024/01/08 06:44:49;;;;;;;9.10;7.88;;;2.70;99.90;;;;;;4897056;29;20775;-64
2024/01/08 06:47:15;;;;;;;9.43;8.45;;;2.80;99.90;;;;;;4895408;29;20860;-65
2024/01/08 06:49:41;;;;;;;9.70;7.17;;;2.90;99.90;;;;;;4895616;29;20186;-66
2024/01/08 06:52:07;;;;;;;12.80;8.03;;;3.00;99.90;;;;;;4898782;29;20411;-68
2024/01/08 06:54:34;;;;;;;8.10;6.60;;;3.00;99.90;;;;;;4897891;29;20179;-67
2024/01/08 06:57:00;;;;;;;7.30;6.27;;;3.00;99.90;;;;;;4898680;29;20242;-68
2024/01/08 06:59:26;;;;;;;11.17;8.70;;;3.00;99.90;;;;;;4881985;29;20455;-67
2024/01/08 07:01:51;;;;;;;10.07;8.83;;;2.90;99.90;;;;;;4893820;29;21012;-67
2024/01/08 07:04:18;;;;;;;9.23;8.37;;;3.00;99.90;;;;;;4875001;29;20441;-66
2024/01/08 07:06:44;;;;;;;11.98;8.75;;;3.00;99.90;;;;;;4890229;29;20211;-66
2024/01/08 07:09:10;;;;;;;8.10;7.03;;;3.10;99.90;;;;;;4880857;29;20179;-66
2024/01/08 07:11:36;;;;;;;8.60;7.80;;;3.00;99.90;;;;;;4891200;29;20183;-65
2024/01/08 07:14:02;;;;;;;8.37;7.60;;;2.90;99.90;;;;;;4881875;29;20442;-66
2024/01/08 07:16:28;;;;;;;8.45;7.55;;;3.00;99.90;;;;;;4898246;29;20394;-67
2024/01/08 07:18:54;;;;;;;7.37;6.67;;;3.10;99.90;;;;;;4897582;29;20207;-66
2024/01/08 07:21:20;;;;;;;7.73;6.93;;;3.10;99.90;;;;;;4898611;29;20242;-66
2024/01/08 07:23:48;;;;;;;8.38;7.13;;;3.20;99.90;;;;;;4897332;29;20374;-65
2024/01/08 07:26:14;;;;;;;9.40;7.70;;;3.10;99.90;;;;;;4897412;29;20247;-67
2024/01/08 07:28:43;;;;;;;10.63;8.85;;;3.10;99.90;;;;;;4896982;29;20246;-66
2024/01/08 07:31:11;;;;;;;10.35;9.32;;;3.10;99.90;;;;;;4897765;29;20528;-66
2024/01/08 07:33:37;;;;;;;10.32;9.00;;;3.20;99.90;;;;;;4897375;29;20202;-66
2024/01/08 07:36:06;;;;;;;10.37;9.07;;;3.20;99.90;;;;;;4898110;29;20178;-66
2024/01/08 07:38:31;;;;;;;9.80;7.78;;;3.20;99.90;;;;;;4886305;29;20472;-61
2024/01/08 07:40:58;;;;;;;8.20;7.40;;;3.30;99.90;;;;;;4892363;29;20188;-66
2024/01/08 07:43:24;;;;;;;8.60;7.80;;;3.30;99.90;;;;;;4881192;29;20607;-66
2024/01/08 07:45:50;;;;;;;7.67;6.87;;;3.30;99.90;;;;;;4896822;29;20261;-66
2024/01/08 07:48:16;;;;;;;9.93;8.10;;;3.10;99.90;;;;;;4898030;29;20247;-68
2024/01/08 07:50:42;;;;;;;10.83;7.40;;;3.00;99.90;;;;;;4897102;29;20179;-67
2024/01/08 07:53:08;;;;;;;8.20;7.30;;;2.90;99.90;;;;;;4897598;29;20190;-67
2024/01/08 07:55:33;;;;;;;7.93;7.13;;;2.90;99.90;;;;;;4896935;29;20412;-62
2024/01/08 07:57:59;;;;;;;8.10;7.40;;;2.90;99.90;;;;;;4894621;29;20215;-67
2024/01/08 08:00:25;;;;;;;10.83;7.07;;;2.90;99.90;;;;;;4885501;29;20203;-67
2024/01/08 08:02:51;;;;;;;8.63;7.80;;;2.80;99.90;;;;;;4874580;29;20214;-66
2024/01/08 08:05:17;;;;;;;8.73;7.82;;;2.60;99.90;;;;;;4887663;29;20221;-67
2024/01/08 08:07:43;;;;;;;9.80;7.47;;;2.60;99.90;;;;;;4879778;29;20183;-68
2024/01/08 08:10:09;;;;;;;8.60;7.80;;;2.70;99.90;;;;;;4895134;29;20438;-66
2024/01/08 08:12:35;;;;;;;11.05;8.57;;;2.70;99.90;;;;;;4894834;29;20546;-60
2024/01/08 08:15:01;;;;;;;9.88;8.85;;;2.80;99.90;;;;;;4894907;29;20187;-67
2024/01/08 08:17:27;;;;;;;11.25;9.45;;;2.90;99.90;;;;;;4890401;29;20214;-65
2024/01/08 08:19:53;;;;;;;9.30;8.40;;;3.00;99.90;;;;;;4888572;29;20624;-67
2024/01/08 08:22:19;;;;;;;10.50;9.50;;;2.90;99.90;;;;;;4868375;29;20545;-66
2024/01/08 08:24:47;;;;;;;9.13;8.20;;;2.90;99.90;;;;;;4884336;29;20425;-66
2024/01/08 08:27:13;;;;;;;10.45;9.35;;;2.80;99.90;;;;;;4897401;29;20227;-67
2024/01/08 08:29:41;;;;;;;9.65;8.75;;;2.80;99.90;;;;;;4887601;29;20263;-67
2024/01/08 08:32:08;;;;;;;11.48;9.30;;;2.90;99.90;;;;;;4878566;29;20179;-68
2024/01/08 08:34:34;;;;;;;7.13;6.43;;;2.90;99.90;;;;;;4878573;29;20632;-68
2024/01/08 08:37:00;;;;;;;9.48;8.35;;;3.00;99.90;;;;;;4877551;29;20668;-67
2024/01/08 08:39:26;;;;;;;9.77;8.77;;;2.80;99.90;;;;;;4878582;29;20179;-69
2024/01/08 08:41:52;;;;;;;8.95;8.10;;;2.90;99.90;;;;;;4894581;29;20182;-72
2024/01/08 08:44:18;;;;;;;9.50;8.60;;;2.90;99.90;;;;;;4884492;29;20632;-70
2024/01/08 08:46:44;;;;;;;10.87;9.30;;;2.90;99.90;;;;;;4886463;29;20479;-70
2024/01/08 08:49:12;;;;;;;10.23;9.38;;;3.00;99.90;;;;;;4871304;29;20804;-65
2024/01/08 08:51:38;;;;;;;14.15;12.30;;;3.50;99.90;;;;;;4893523;29;20718;-63
2024/01/08 08:54:03;;;;;;;35.05;23.88;;;5.40;99.90;;;;;;4896333;29;20183;-65
2024/01/08 08:56:36;;;;;;;51.63;33.43;;;7.20;99.90;;;;;;4891783;29;20229;-65
2024/01/08 08:59:02;;;;;;;67.47;38.97;;;8.50;99.90;;;;;;4891947;29;20266;-65
2024/01/08 09:01:28;;;;;;;76.30;44.43;;;9.50;99.90;;;;;;4886259;29;20438;-64
2024/01/08 09:03:54;;;;;;;66.50;41.53;;;10.50;99.90;;;;;;4888091;29;20436;-65
2024/01/08 09:06:23;;;;;;;91.73;58.20;;;11.20;99.90;;;;;;4895502;29;20781;-65
2024/01/08 09:08:53;;;;;;;42.17;29.77;;;11.70;99.90;;;;;;4894778;29;20450;-65
2024/01/08 09:11:19;;;;;;;69.57;40.87;;;12.30;90.90;;;;;;4896090;29;20430;-65
2024/01/08 09:13:46;;;;;;;71.07;46.57;;;12.80;95.40;;;;;;4895463;29;20513;-64
2024/01/08 09:16:12;;;;;;;57.07;38.93;;;13.60;94.40;;;;;;4891792;29;20473;-65
2024/01/08 09:18:38;;;;;;;24.73;20.63;;;13.60;87.10;;;;;;4881606;29;20478;-64
2024/01/08 09:21:08;;;;;;;37.87;28.00;;;14.20;82.30;;;;;;4880900;29;20437;-64
2024/01/08 09:23:33;;;;;;;56.77;37.00;;;14.70;81.30;;;;;;4878193;29;20764;-63
2024/01/08 09:25:59;;;;;;;76.30;49.63;;;15.10;80.40;;;;;;4887335;29;20442;-62
2024/01/08 09:28:25;;;;;;;11.33;10.27;;;14.90;73.90;;;;;;4873562;29;20292;-69
2024/01/08 09:30:52;;;;;;;7.90;7.27;;;14.30;53.70;;;;;;4884062;29;20625;-68
2024/01/08 09:33:18;;;;;;;8.70;7.90;;;13.60;49.60;;;;;;4892540;29;20191;-69
2024/01/08 09:35:44;;;;;;;8.17;7.37;;;12.80;50.00;;;;;;4886059;29;20792;-68
2024/01/08 09:38:10;;;;;;;8.13;7.33;;;11.80;50.00;;;;;;4887598;29;20998;-69
2024/01/08 09:40:36;;;;;;;9.50;7.77;;;11.30;50.80;;;;;;4891765;29;20185;-68
2024/01/08 09:43:06;;;;;;;10.80;8.43;;;10.50;51.50;;;;;;4897782;29;20189;-69
2024/01/08 09:45:32;;;;;;;8.10;7.40;;;9.60;52.60;;;;;;4866194;29;20482;-69
2024/01/08 09:47:59;;;;;;;13.80;8.87;;;8.70;54.40;;;;;;4890786;29;20443;-69
2024/01/08 09:50:28;;;;;;;10.67;8.83;;;7.80;58.90;;;;;;4873025;29;20510;-69
2024/01/08 09:52:55;;;;;;;10.90;8.20;;;7.00;58.60;;;;;;4865600;29;20471;-68
2024/01/08 09:55:21;;;;;;;7.93;7.13;;;6.40;59.30;;;;;;4890784;29;20441;-68
2024/01/08 09:57:47;;;;;;;7.80;6.57;;;6.10;59.20;;;;;;4878470;29;20471;-68
2024/01/08 10:00:14;;;;;;;7.33;6.63;;;6.20;60.20;;;;;;4878449;29;20435;-69
2024/01/08 10:02:40;;;;;;;7.20;6.50;;;6.50;57.10;;;;;;4878607;29;20463;-65
2024/01/08 10:05:07;;;;;;;11.60;8.80;;;6.70;54.50;;;;;;4880089;29;20431;-68
2024/01/08 10:07:35;;;;;;;7.03;6.33;;;6.80;55.40;;;;;;4880697;29;20921;-68
2024/01/08 10:10:01;;;;;;;7.73;7.03;;;7.40;54.40;;;;;;4879597;29;20980;-69
2024/01/08 10:12:28;;;;;;;6.87;6.37;;;7.70;52.10;;;;;;4882017;29;20418;-69
2024/01/08 10:14:57;;;;;;;7.63;7.03;;;7.80;51.10;;;;;;4880966;29;20506;-68
2024/01/08 10:17:22;;;;;;;5.73;5.00;;;7.70;51.60;;;;;;4881646;29;20466;-69
2024/01/08 10:19:48;;;;;;;8.57;7.67;;;7.80;50.70;;;;;;4877694;29;20491;-68
2024/01/08 10:22:14;;;;;;;12.37;7.30;;;8.10;51.20;;;;;;4878237;29;20518;-68
2024/01/08 10:24:42;;;;;;;6.20;5.63;;;8.20;49.00;;;;;;4878883;29;20459;-67
2024/01/08 10:27:09;;;;;;;8.67;7.83;;;8.40;50.10;;;;;;4871839;29;20450;-70
2024/01/08 10:29:40;;;;;;;6.27;5.77;;;8.80;48.00;;;;;;4878706;29;20438;-68
2024/01/08 10:32:06;;;;;;;7.33;6.60;;;9.10;48.20;;;;;;4874048;29;20512;-68
2024/01/08 10:34:34;;;;;;;9.30;8.20;;;8.90;46.50;;;;;;4865667;29;20436;-68
2024/01/08 10:36:59;;;;;;;7.37;6.67;;;9.00;48.00;;;;;;4870357;29;20491;-68
2024/01/08 10:39:30;;;;;;;6.90;6.40;;;9.20;49.40;;;;;;4876116;29;20436;-69
2024/01/08 10:42:00;;;;;;;6.67;6.07;;;9.00;45.40;;;;;;4880222;29;20166;-68
2024/01/08 10:44:26;;;;;;;7.03;6.50;;;8.80;46.50;;;;;;4880870;29;20418;-68
2024/01/08 10:46:56;;;;;;;6.87;6.23;;;8.60;47.80;;;;;;4876823;29;20422;-68
2024/01/08 10:49:31;;;;;;;8.10;7.37;;;8.70;48.60;;;;;;4873074;29;20761;-68
2024/01/08 10:51:59;;;;;;;7.57;6.87;;;8.40;50.50;;;;;;4874577;29;20869;-69
2024/01/08 10:54:33;;;;;;;6.00;5.50;;;8.40;51.30;;;;;;4875952;29;20429;-67
2024/01/08 10:57:03;;;;;;;6.30;5.80;;;8.30;49.60;;;;;;4875487;29;20463;-67
2024/01/08 10:59:31;;;;;;;6.13;5.63;;;8.10;46.80;;;;;;4889927;29;20431;-73
2024/01/08 11:01:57;;;;;;;11.80;9.20;;;7.90;49.30;;;;;;4894359;29;20886;-69
2024/01/08 11:04:23;;;;;;;8.43;7.63;;;7.90;53.00;;;;;;4880585;29;20457;-70
2024/01/08 11:06:50;;;;;;;7.13;6.40;;;7.90;52.00;;;;;;4869802;29;20198;-71
2024/01/08 11:09:24;;;;;;;7.00;6.50;;;7.80;50.90;;;;;;4882476;29;20170;-70
2024/01/08 11:11:50;;;;;;;7.37;6.77;;;7.70;51.10;;;;;;4893072;29;20423;-69
2024/01/08 11:14:17;;;;;;;6.23;5.63;;;7.60;49.80;;;;;;4887274;29;20438;-65
2024/01/08 11:16:43;;;;;;;6.20;5.60;;;7.60;49.10;;;;;;4893143;29;20451;-70
2024/01/08 11:19:18;;;;;;;6.37;5.77;;;7.60;47.80;;;;;;4897547;29;20479;-70
2024/01/08 11:21:45;;;;;;;5.93;5.43;;;7.60;46.90;;;;;;4901824;29;20794;-70
2024/01/08 11:24:10;;;;;;;7.73;6.60;;;7.50;48.50;;;;;;4888593;29;20770;-69
2024/01/08 11:26:47;;;;;;;10.00;8.87;;;7.50;46.10;;;;;;4892448;29;20938;-70
2024/01/08 11:29:15;;;;;;;6.40;5.90;;;7.40;48.70;;;;;;4897045;29;20197;-69
2024/01/08 11:31:51;;;;;;;5.80;5.40;;;7.30;46.10;;;;;;4868938;29;20442;-70
2024/01/08 11:34:43;;;;;;;6.43;5.90;;;6.60;43.60;;;;;;4885712;29;20434;-69
2024/01/08 11:37:38;;;;;;;7.30;6.60;;;6.70;50.70;;;;;;4889070;29;20521;-69
2024/01/08 11:40:16;;;;;;;7.20;6.50;;;6.60;47.70;;;;;;4893866;29;20482;-69
2024/01/08 11:42:44;;;;;;;6.03;5.53;;;6.40;48.90;;;;;;4873077;29;20465;-69
2024/01/08 11:45:10;;;;;;;5.97;5.20;;;6.30;48.20;;;;;;4864511;29;20426;-70
2024/01/08 11:47:37;;;;;;;6.70;6.10;;;6.20;51.00;;;;;;4876009;29;20437;-72
2024/01/08 11:50:04;;;;;;;6.70;6.17;;;6.40;51.10;;;;;;4882959;29;20907;-70
2024/01/08 11:52:31;;;;;;;6.80;6.20;;;6.40;50.40;;;;;;4881191;29;20482;-72
2024/01/08 11:54:57;;;;;;;6.63;6.10;;;6.50;51.10;;;;;;4897162;29;20429;-70
2024/01/08 11:57:23;;;;;;;6.63;5.93;;;6.60;49.30;;;;;;4892699;29;20478;-70
2024/01/08 11:59:49;;;;;;;6.17;5.60;;;6.60;49.10;;;;;;4879748;29;20514;-70
2024/01/08 12:02:18;;;;;;;7.30;6.60;;;6.60;49.90;;;;;;4880358;29;20858;-70
2024/01/08 12:04:55;;;;;;;6.70;6.10;;;6.40;47.50;;;;;;4885597;29;20187;-71
2024/01/08 12:07:23;;;;;;;7.00;6.40;;;6.50;49.70;;;;;;4893725;29;20466;-71
2024/01/08 12:09:49;;;;;;;6.27;5.77;;;6.60;48.40;;;;;;4890041;29;20447;-70
2024/01/08 12:12:19;;;;;;;5.93;5.33;;;6.50;47.80;;;;;;4897605;29;20393;-70
2024/01/08 12:14:47;;;;;;;6.03;5.53;;;6.30;48.10;;;;;;4884642;29;20412;-67
2024/01/08 12:17:15;;;;;;;7.00;6.40;;;6.30;49.20;;;;;;4891723;29;20468;-70
2024/01/08 12:19:47;;;;;;;6.90;6.30;;;6.10;48.90;;;;;;4877605;29;20469;-69
2024/01/08 12:22:14;;;;;;;7.30;6.67;;;6.10;48.80;;;;;;4879328;29;20516;-70
2024/01/08 12:24:41;;;;;;;6.70;6.10;;;5.90;49.60;;;;;;4875018;29;20757;-70
2024/01/08 12:27:08;;;;;;;7.90;6.50;;;5.80;51.90;;;;;;4887152;29;20435;-70
2024/01/08 12:29:38;;;;;;;6.88;6.28;;;5.70;49.00;;;;;;4878919;29;20445;-70
2024/01/08 12:32:05;;;;;;;6.10;5.60;;;5.50;50.30;;;;;;4879386;29;20210;-70
2024/01/08 12:34:32;;;;;;;7.15;5.15;;;5.60;50.00;;;;;;4887032;29;20424;-70
2024/01/08 12:36:59;;;;;;;6.53;5.95;;;5.40;50.40;;;;;;4879662;29;20188;-71
2024/01/08 12:39:29;;;;;;;6.20;5.70;;;5.40;52.00;;;;;;4889746;29;20188;-71
2024/01/08 12:41:58;;;;;;;7.55;6.85;;;5.40;52.40;;;;;;4896752;29;20254;-70
2024/01/08 12:44:30;;;;;;;8.77;7.13;;;5.30;52.30;;;;;;4894654;29;20266;-70
2024/01/08 12:46:56;;;;;;;9.80;7.75;;;5.30;56.80;;;;;;4892553;29;20183;-71
2024/01/08 12:49:26;;;;;;;7.43;6.68;;;5.20;58.00;;;;;;4878861;29;20180;-71